sensor_id;sensor_type;location;lat;lon;timestamp;P1;durP1;ratioP1;P2;durP2;ratioP2
73107;SDS011;61559;50.476;15.588;2023-07-22T00:01:04;7.30;;;3.60;;
73107;SDS011;61559;50.476;15.588;2023-07-22T00:03:36;7.40;;;3.80;;
73107;SDS011;61559;50.476;15.588;2023-07-22T00:06:08;6.70;;;4.10;;
73107;SDS011;61559;50.476;15.588;2023-07-22T00:08:39;5.10;;;4.10;;
73107;SDS011;61559;50.476;15.588;2023-07-22T00:11:11;7.30;;;4.00;;
73107;SDS011;61559;50.476;15.588;2023-07-22T00:13:42;5.20;;;4.10;;
73107;SDS011;61559;50.476;15.588;2023-07-22T00:16:13;5.50;;;3.90;;
73107;SDS011;61559;50.476;15.588;2023-07-22T00:18:44;4.80;;;3.80;;
73107;SDS011;61559;50.476;15.588;2023-07-22T00:21:16;5.10;;;3.90;;
73107;SDS011;61559;50.476;15.588;2023-07-22T00:23:47;5.50;;;3.90;;
73107;SDS011;61559;50.476;15.588;2023-07-22T00:26:19;6.70;;;4.10;;
73107;SDS011;61559;50.476;15.588;2023-07-22T00:28:50;5.00;;;3.80;;
73107;SDS011;61559;50.476;15.588;2023-07-22T00:31:21;5.50;;;3.70;;
73107;SDS011;61559;50.476;15.588;2023-07-22T00:33:52;6.40;;;4.00;;
73107;SDS011;61559;50.476;15.588;2023-07-22T00:36:23;9.60;;;3.70;;
73107;SDS011;61559;50.476;15.588;2023-07-22T00:38:55;6.70;;;4.60;;
73107;SDS011;61559;50.476;15.588;2023-07-22T00:41:27;5.80;;;4.20;;
73107;SDS011;61559;50.476;15.588;2023-07-22T00:43:58;9.60;;;5.20;;
73107;SDS011;61559;50.476;15.588;2023-07-22T00:46:29;5.50;;;4.10;;
73107;SDS011;61559;50.476;15.588;2023-07-22T00:49:00;5.20;;;4.50;;
73107;SDS011;61559;50.476;15.588;2023-07-22T00:51:32;5.50;;;4.30;;
73107;SDS011;61559;50.476;15.588;2023-07-22T00:54:03;5.70;;;4.10;;
73107;SDS011;61559;50.476;15.588;2023-07-22T00:56:35;7.30;;;4.50;;
73107;SDS011;61559;50.476;15.588;2023-07-22T00:59:10;6.70;;;4.80;;
73107;SDS011;61559;50.476;15.588;2023-07-22T01:01:41;6.50;;;4.80;;
73107;SDS011;61559;50.476;15.588;2023-07-22T01:04:13;6.30;;;4.60;;
73107;SDS011;61559;50.476;15.588;2023-07-22T01:06:48;7.10;;;4.20;;
73107;SDS011;61559;50.476;15.588;2023-07-22T01:09:22;6.00;;;4.20;;
73107;SDS011;61559;50.476;15.588;2023-07-22T01:11:54;6.00;;;4.60;;
73107;SDS011;61559;50.476;15.588;2023-07-22T01:14:25;5.50;;;4.40;;
73107;SDS011;61559;50.476;15.588;2023-07-22T01:16:57;6.90;;;5.00;;
73107;SDS011;61559;50.476;15.588;2023-07-22T01:19:28;6.70;;;4.50;;
73107;SDS011;61559;50.476;15.588;2023-07-22T01:22:00;8.00;;;4.70;;
73107;SDS011;61559;50.476;15.588;2023-07-22T01:24:33;5.90;;;4.40;;
73107;SDS011;61559;50.476;15.588;2023-07-22T01:27:06;5.90;;;5.00;;
73107;SDS011;61559;50.476;15.588;2023-07-22T01:29:40;7.90;;;5.00;;
73107;SDS011;61559;50.476;15.588;2023-07-22T01:32:11;6.90;;;4.60;;
73107;SDS011;61559;50.476;15.588;2023-07-22T01:34:42;5.80;;;4.30;;
73107;SDS011;61559;50.476;15.588;2023-07-22T01:37:14;5.50;;;4.10;;
73107;SDS011;61559;50.476;15.588;2023-07-22T01:39:45;5.40;;;4.20;;
73107;SDS011;61559;50.476;15.588;2023-07-22T01:42:16;6.50;;;4.70;;
73107;SDS011;61559;50.476;15.588;2023-07-22T01:44:47;6.80;;;4.50;;
73107;SDS011;61559;50.476;15.588;2023-07-22T01:47:18;4.60;;;3.80;;
73107;SDS011;61559;50.476;15.588;2023-07-22T01:49:49;5.90;;;4.20;;
73107;SDS011;61559;50.476;15.588;2023-07-22T01:52:23;4.10;;;3.50;;
73107;SDS011;61559;50.476;15.588;2023-07-22T01:54:54;4.40;;;3.70;;
73107;SDS011;61559;50.476;15.588;2023-07-22T01:57:25;4.50;;;3.50;;
73107;SDS011;61559;50.476;15.588;2023-07-22T01:59:56;5.80;;;3.90;;
73107;SDS011;61559;50.476;15.588;2023-07-22T02:02:30;6.10;;;4.40;;
73107;SDS011;61559;50.476;15.588;2023-07-22T02:05:02;5.50;;;4.20;;
73107;SDS011;61559;50.476;15.588;2023-07-22T02:07:34;6.30;;;3.90;;
73107;SDS011;61559;50.476;15.588;2023-07-22T02:10:06;6.10;;;4.40;;
73107;SDS011;61559;50.476;15.588;2023-07-22T02:12:38;6.60;;;4.70;;
73107;SDS011;61559;50.476;15.588;2023-07-22T02:15:09;5.90;;;4.50;;
73107;SDS011;61559;50.476;15.588;2023-07-22T02:17:44;16.60;;;5.00;;
73107;SDS011;61559;50.476;15.588;2023-07-22T02:20:15;6.80;;;4.70;;
73107;SDS011;61559;50.476;15.588;2023-07-22T02:22:46;8.70;;;5.00;;
73107;SDS011;61559;50.476;15.588;2023-07-22T02:25:18;5.70;;;4.00;;
73107;SDS011;61559;50.476;15.588;2023-07-22T02:27:49;7.30;;;4.20;;
73107;SDS011;61559;50.476;15.588;2023-07-22T02:30:20;7.70;;;3.60;;
73107;SDS011;61559;50.476;15.588;2023-07-22T02:32:51;5.90;;;4.30;;
73107;SDS011;61559;50.476;15.588;2023-07-22T02:35:22;5.40;;;3.90;;
73107;SDS011;61559;50.476;15.588;2023-07-22T02:37:54;8.80;;;4.30;;
73107;SDS011;61559;50.476;15.588;2023-07-22T02:40:25;6.80;;;4.40;;
73107;SDS011;61559;50.476;15.588;2023-07-22T02:42:57;8.60;;;4.00;;
73107;SDS011;61559;50.476;15.588;2023-07-22T02:45:27;6.10;;;4.40;;
73107;SDS011;61559;50.476;15.588;2023-07-22T02:47:59;5.20;;;3.80;;
73107;SDS011;61559;50.476;15.588;2023-07-22T02:50:31;4.80;;;3.80;;
73107;SDS011;61559;50.476;15.588;2023-07-22T02:53:02;6.30;;;4.20;;
73107;SDS011;61559;50.476;15.588;2023-07-22T02:55:33;4.70;;;3.80;;
73107;SDS011;61559;50.476;15.588;2023-07-22T02:58:04;5.70;;;3.60;;
73107;SDS011;61559;50.476;15.588;2023-07-22T03:00:36;4.90;;;4.00;;
73107;SDS011;61559;50.476;15.588;2023-07-22T03:03:07;8.30;;;4.40;;
73107;SDS011;61559;50.476;15.588;2023-07-22T03:05:38;14.50;;;3.70;;
73107;SDS011;61559;50.476;15.588;2023-07-22T03:08:09;5.00;;;3.90;;
73107;SDS011;61559;50.476;15.588;2023-07-22T03:10:40;5.50;;;4.00;;
73107;SDS011;61559;50.476;15.588;2023-07-22T03:13:15;6.00;;;4.10;;
73107;SDS011;61559;50.476;15.588;2023-07-22T03:15:46;4.90;;;3.70;;
73107;SDS011;61559;50.476;15.588;2023-07-22T03:18:18;8.90;;;4.20;;
73107;SDS011;61559;50.476;15.588;2023-07-22T03:20:49;8.80;;;3.60;;
73107;SDS011;61559;50.476;15.588;2023-07-22T03:23:20;6.80;;;3.50;;
73107;SDS011;61559;50.476;15.588;2023-07-22T03:25:52;10.20;;;3.70;;
73107;SDS011;61559;50.476;15.588;2023-07-22T03:28:23;4.70;;;3.50;;
73107;SDS011;61559;50.476;15.588;2023-07-22T03:30:55;6.30;;;3.50;;
73107;SDS011;61559;50.476;15.588;2023-07-22T03:33:26;6.60;;;3.90;;
73107;SDS011;61559;50.476;15.588;2023-07-22T03:35:57;32.50;;;4.80;;
73107;SDS011;61559;50.476;15.588;2023-07-22T03:38:28;13.20;;;4.00;;
73107;SDS011;61559;50.476;15.588;2023-07-22T03:40:59;17.50;;;4.00;;
73107;SDS011;61559;50.476;15.588;2023-07-22T03:43:31;18.60;;;4.80;;
73107;SDS011;61559;50.476;15.588;2023-07-22T03:46:02;20.80;;;4.40;;
73107;SDS011;61559;50.476;15.588;2023-07-22T03:48:35;9.30;;;4.20;;
73107;SDS011;61559;50.476;15.588;2023-07-22T03:51:06;7.60;;;3.70;;
73107;SDS011;61559;50.476;15.588;2023-07-22T03:53:47;6.60;;;3.80;;
73107;SDS011;61559;50.476;15.588;2023-07-22T03:56:18;8.30;;;4.10;;
73107;SDS011;61559;50.476;15.588;2023-07-22T03:58:52;10.10;;;4.00;;
73107;SDS011;61559;50.476;15.588;2023-07-22T04:01:24;6.60;;;3.70;;
73107;SDS011;61559;50.476;15.588;2023-07-22T04:03:55;8.20;;;3.70;;
73107;SDS011;61559;50.476;15.588;2023-07-22T04:06:26;10.30;;;4.20;;
73107;SDS011;61559;50.476;15.588;2023-07-22T04:08:58;8.10;;;4.90;;
73107;SDS011;61559;50.476;15.588;2023-07-22T04:11:29;14.20;;;4.30;;
73107;SDS011;61559;50.476;15.588;2023-07-22T04:14:01;12.60;;;4.40;;
73107;SDS011;61559;50.476;15.588;2023-07-22T04:16:32;8.20;;;5.10;;
73107;SDS011;61559;50.476;15.588;2023-07-22T04:19:03;11.90;;;4.80;;
73107;SDS011;61559;50.476;15.588;2023-07-22T04:21:34;15.30;;;4.70;;
73107;SDS011;61559;50.476;15.588;2023-07-22T04:24:06;11.80;;;4.40;;
73107;SDS011;61559;50.476;15.588;2023-07-22T04:26:40;9.00;;;4.50;;
73107;SDS011;61559;50.476;15.588;2023-07-22T04:29:13;22.60;;;5.10;;
73107;SDS011;61559;50.476;15.588;2023-07-22T04:31:44;15.20;;;4.90;;
73107;SDS011;61559;50.476;15.588;2023-07-22T04:34:15;8.10;;;4.10;;
73107;SDS011;61559;50.476;15.588;2023-07-22T04:36:46;12.70;;;4.70;;
73107;SDS011;61559;50.476;15.588;2023-07-22T04:39:18;10.20;;;4.60;;
73107;SDS011;61559;50.476;15.588;2023-07-22T04:41:49;10.20;;;4.60;;
73107;SDS011;61559;50.476;15.588;2023-07-22T04:44:21;7.30;;;4.10;;
73107;SDS011;61559;50.476;15.588;2023-07-22T04:46:53;5.90;;;4.50;;
73107;SDS011;61559;50.476;15.588;2023-07-22T04:49:25;5.70;;;4.60;;
73107;SDS011;61559;50.476;15.588;2023-07-22T04:51:56;5.70;;;4.30;;
73107;SDS011;61559;50.476;15.588;2023-07-22T04:54:27;5.90;;;4.90;;
73107;SDS011;61559;50.476;15.588;2023-07-22T04:56:59;6.90;;;4.90;;
73107;SDS011;61559;50.476;15.588;2023-07-22T04:59:31;5.50;;;4.70;;
73107;SDS011;61559;50.476;15.588;2023-07-22T05:02:02;6.50;;;4.80;;
73107;SDS011;61559;50.476;15.588;2023-07-22T05:04:34;6.80;;;5.30;;
73107;SDS011;61559;50.476;15.588;2023-07-22T05:07:05;8.00;;;5.70;;
73107;SDS011;61559;50.476;15.588;2023-07-22T05:09:37;7.30;;;5.90;;
73107;SDS011;61559;50.476;15.588;2023-07-22T05:12:09;8.60;;;6.50;;
73107;SDS011;61559;50.476;15.588;2023-07-22T05:14:40;7.70;;;5.80;;
73107;SDS011;61559;50.476;15.588;2023-07-22T05:17:11;9.00;;;6.60;;
73107;SDS011;61559;50.476;15.588;2023-07-22T05:19:43;8.50;;;6.70;;
73107;SDS011;61559;50.476;15.588;2023-07-22T05:22:17;9.70;;;7.10;;
73107;SDS011;61559;50.476;15.588;2023-07-22T05:24:48;8.70;;;6.60;;
73107;SDS011;61559;50.476;15.588;2023-07-22T05:27:19;9.30;;;6.70;;
73107;SDS011;61559;50.476;15.588;2023-07-22T05:29:50;8.10;;;6.60;;
73107;SDS011;61559;50.476;15.588;2023-07-22T05:32:22;7.00;;;5.70;;
73107;SDS011;61559;50.476;15.588;2023-07-22T05:35:01;10.80;;;6.90;;
73107;SDS011;61559;50.476;15.588;2023-07-22T05:37:33;8.60;;;6.30;;
73107;SDS011;61559;50.476;15.588;2023-07-22T05:40:05;9.70;;;6.60;;
73107;SDS011;61559;50.476;15.588;2023-07-22T05:42:38;11.00;;;7.20;;
73107;SDS011;61559;50.476;15.588;2023-07-22T05:45:10;7.90;;;6.10;;
73107;SDS011;61559;50.476;15.588;2023-07-22T05:47:43;9.00;;;6.60;;
73107;SDS011;61559;50.476;15.588;2023-07-22T05:50:15;8.70;;;6.40;;
73107;SDS011;61559;50.476;15.588;2023-07-22T05:52:46;7.80;;;5.80;;
73107;SDS011;61559;50.476;15.588;2023-07-22T05:55:17;8.10;;;5.90;;
73107;SDS011;61559;50.476;15.588;2023-07-22T05:57:48;10.80;;;6.70;;
73107;SDS011;61559;50.476;15.588;2023-07-22T06:00:20;9.00;;;6.20;;
73107;SDS011;61559;50.476;15.588;2023-07-22T06:02:51;8.20;;;6.00;;
73107;SDS011;61559;50.476;15.588;2023-07-22T06:05:22;8.80;;;7.00;;
73107;SDS011;61559;50.476;15.588;2023-07-22T06:07:53;8.30;;;5.90;;
73107;SDS011;61559;50.476;15.588;2023-07-22T06:10:25;6.60;;;4.60;;
73107;SDS011;61559;50.476;15.588;2023-07-22T06:12:58;8.00;;;5.70;;
73107;SDS011;61559;50.476;15.588;2023-07-22T06:15:29;7.20;;;5.30;;
73107;SDS011;61559;50.476;15.588;2023-07-22T06:18:03;5.60;;;4.80;;
73107;SDS011;61559;50.476;15.588;2023-07-22T06:20:37;9.50;;;5.00;;
73107;SDS011;61559;50.476;15.588;2023-07-22T06:23:08;6.80;;;5.20;;
73107;SDS011;61559;50.476;15.588;2023-07-22T06:25:39;8.20;;;6.00;;
73107;SDS011;61559;50.476;15.588;2023-07-22T06:28:11;8.00;;;5.50;;
73107;SDS011;61559;50.476;15.588;2023-07-22T06:30:42;7.00;;;5.20;;
73107;SDS011;61559;50.476;15.588;2023-07-22T06:33:13;9.80;;;5.20;;
73107;SDS011;61559;50.476;15.588;2023-07-22T06:35:45;7.90;;;5.00;;
73107;SDS011;61559;50.476;15.588;2023-07-22T06:38:20;6.10;;;4.50;;
73107;SDS011;61559;50.476;15.588;2023-07-22T06:40:53;7.60;;;4.60;;
73107;SDS011;61559;50.476;15.588;2023-07-22T06:43:25;6.50;;;4.00;;
73107;SDS011;61559;50.476;15.588;2023-07-22T06:45:57;5.60;;;3.90;;
73107;SDS011;61559;50.476;15.588;2023-07-22T06:48:28;5.10;;;4.60;;
73107;SDS011;61559;50.476;15.588;2023-07-22T06:50:59;8.60;;;4.70;;
73107;SDS011;61559;50.476;15.588;2023-07-22T06:53:31;4.80;;;4.00;;
73107;SDS011;61559;50.476;15.588;2023-07-22T06:56:03;6.40;;;4.50;;
73107;SDS011;61559;50.476;15.588;2023-07-22T06:58:34;7.60;;;4.00;;
73107;SDS011;61559;50.476;15.588;2023-07-22T07:01:05;5.00;;;3.50;;
73107;SDS011;61559;50.476;15.588;2023-07-22T07:03:36;4.40;;;3.40;;
73107;SDS011;61559;50.476;15.588;2023-07-22T07:06:07;5.80;;;3.70;;
73107;SDS011;61559;50.476;15.588;2023-07-22T07:08:38;9.20;;;4.60;;
73107;SDS011;61559;50.476;15.588;2023-07-22T07:11:10;6.10;;;3.90;;
73107;SDS011;61559;50.476;15.588;2023-07-22T07:13:41;5.90;;;4.00;;
73107;SDS011;61559;50.476;15.588;2023-07-22T07:16:22;4.70;;;4.10;;
73107;SDS011;61559;50.476;15.588;2023-07-22T07:18:55;5.90;;;4.30;;
73107;SDS011;61559;50.476;15.588;2023-07-22T07:21:27;6.40;;;4.60;;
73107;SDS011;61559;50.476;15.588;2023-07-22T07:23:58;6.20;;;4.40;;
73107;SDS011;61559;50.476;15.588;2023-07-22T07:26:29;4.90;;;4.30;;
73107;SDS011;61559;50.476;15.588;2023-07-22T07:29:00;7.10;;;4.70;;
73107;SDS011;61559;50.476;15.588;2023-07-22T07:31:31;6.90;;;4.00;;
73107;SDS011;61559;50.476;15.588;2023-07-22T07:34:03;6.20;;;4.20;;
73107;SDS011;61559;50.476;15.588;2023-07-22T07:36:34;4.50;;;3.60;;
73107;SDS011;61559;50.476;15.588;2023-07-22T07:39:05;5.50;;;3.50;;
73107;SDS011;61559;50.476;15.588;2023-07-22T07:41:36;4.60;;;3.80;;
73107;SDS011;61559;50.476;15.588;2023-07-22T07:44:07;6.40;;;3.90;;
73107;SDS011;61559;50.476;15.588;2023-07-22T07:46:38;4.10;;;3.70;;
73107;SDS011;61559;50.476;15.588;2023-07-22T07:49:09;3.70;;;3.30;;
73107;SDS011;61559;50.476;15.588;2023-07-22T07:51:41;3.80;;;3.30;;
73107;SDS011;61559;50.476;15.588;2023-07-22T07:54:12;4.10;;;3.40;;
73107;SDS011;61559;50.476;15.588;2023-07-22T07:56:44;5.10;;;3.30;;
73107;SDS011;61559;50.476;15.588;2023-07-22T07:59:17;5.60;;;3.10;;
73107;SDS011;61559;50.476;15.588;2023-07-22T08:01:48;6.40;;;3.60;;
73107;SDS011;61559;50.476;15.588;2023-07-22T08:04:19;7.00;;;3.20;;
73107;SDS011;61559;50.476;15.588;2023-07-22T08:06:51;4.80;;;3.30;;
73107;SDS011;61559;50.476;15.588;2023-07-22T08:09:22;5.90;;;3.10;;
73107;SDS011;61559;50.476;15.588;2023-07-22T08:11:53;3.80;;;2.90;;
73107;SDS011;61559;50.476;15.588;2023-07-22T08:14:24;3.90;;;2.90;;
73107;SDS011;61559;50.476;15.588;2023-07-22T08:16:55;4.20;;;3.10;;
73107;SDS011;61559;50.476;15.588;2023-07-22T08:19:26;3.90;;;3.10;;
73107;SDS011;61559;50.476;15.588;2023-07-22T08:21:58;5.60;;;3.30;;
73107;SDS011;61559;50.476;15.588;2023-07-22T08:24:29;6.20;;;2.80;;
73107;SDS011;61559;50.476;15.588;2023-07-22T08:27:01;5.90;;;3.20;;
73107;SDS011;61559;50.476;15.588;2023-07-22T08:29:33;4.20;;;2.60;;
73107;SDS011;61559;50.476;15.588;2023-07-22T08:32:05;9.20;;;4.10;;
73107;SDS011;61559;50.476;15.588;2023-07-22T08:34:36;4.60;;;2.50;;
73107;SDS011;61559;50.476;15.588;2023-07-22T08:37:07;4.10;;;3.00;;
73107;SDS011;61559;50.476;15.588;2023-07-22T08:39:39;4.10;;;3.30;;
73107;SDS011;61559;50.476;15.588;2023-07-22T08:42:10;3.90;;;3.40;;
73107;SDS011;61559;50.476;15.588;2023-07-22T08:44:43;4.30;;;3.10;;
73107;SDS011;61559;50.476;15.588;2023-07-22T08:47:17;5.00;;;3.80;;
73107;SDS011;61559;50.476;15.588;2023-07-22T08:49:51;4.90;;;3.40;;
73107;SDS011;61559;50.476;15.588;2023-07-22T08:52:26;5.10;;;3.10;;
73107;SDS011;61559;50.476;15.588;2023-07-22T08:54:57;4.20;;;2.80;;
73107;SDS011;61559;50.476;15.588;2023-07-22T08:57:31;3.90;;;3.00;;
73107;SDS011;61559;50.476;15.588;2023-07-22T09:00:04;5.00;;;3.40;;
73107;SDS011;61559;50.476;15.588;2023-07-22T09:02:37;5.70;;;4.40;;
73107;SDS011;61559;50.476;15.588;2023-07-22T09:05:09;4.50;;;3.60;;
73107;SDS011;61559;50.476;15.588;2023-07-22T09:07:40;5.60;;;3.70;;
73107;SDS011;61559;50.476;15.588;2023-07-22T09:10:12;6.00;;;3.40;;
73107;SDS011;61559;50.476;15.588;2023-07-22T09:12:45;5.70;;;3.30;;
73107;SDS011;61559;50.476;15.588;2023-07-22T09:15:16;4.40;;;3.50;;
73107;SDS011;61559;50.476;15.588;2023-07-22T09:17:47;4.60;;;3.00;;
73107;SDS011;61559;50.476;15.588;2023-07-22T09:20:19;4.00;;;3.50;;
73107;SDS011;61559;50.476;15.588;2023-07-22T09:22:51;7.60;;;3.50;;
73107;SDS011;61559;50.476;15.588;2023-07-22T09:25:39;6.10;;;3.70;;
73107;SDS011;61559;50.476;15.588;2023-07-22T09:28:10;4.80;;;3.40;;
73107;SDS011;61559;50.476;15.588;2023-07-22T09:30:41;4.60;;;2.90;;
73107;SDS011;61559;50.476;15.588;2023-07-22T09:33:20;6.30;;;4.30;;
73107;SDS011;61559;50.476;15.588;2023-07-22T09:35:54;5.90;;;3.40;;
73107;SDS011;61559;50.476;15.588;2023-07-22T09:38:26;5.90;;;3.10;;
73107;SDS011;61559;50.476;15.588;2023-07-22T09:40:57;5.00;;;3.30;;
73107;SDS011;61559;50.476;15.588;2023-07-22T09:43:29;3.60;;;3.00;;
73107;SDS011;61559;50.476;15.588;2023-07-22T09:46:06;3.60;;;2.60;;
73107;SDS011;61559;50.476;15.588;2023-07-22T09:48:42;3.60;;;2.90;;
73107;SDS011;61559;50.476;15.588;2023-07-22T09:51:15;3.60;;;2.40;;
73107;SDS011;61559;50.476;15.588;2023-07-22T09:53:46;4.00;;;2.60;;
73107;SDS011;61559;50.476;15.588;2023-07-22T09:56:28;5.00;;;2.80;;
73107;SDS011;61559;50.476;15.588;2023-07-22T09:59:00;4.90;;;2.60;;
73107;SDS011;61559;50.476;15.588;2023-07-22T10:01:35;3.80;;;2.90;;
73107;SDS011;61559;50.476;15.588;2023-07-22T10:04:07;3.60;;;2.70;;
73107;SDS011;61559;50.476;15.588;2023-07-22T10:06:39;4.60;;;2.90;;
73107;SDS011;61559;50.476;15.588;2023-07-22T10:09:12;4.80;;;2.60;;
73107;SDS011;61559;50.476;15.588;2023-07-22T10:11:44;4.20;;;2.30;;
73107;SDS011;61559;50.476;15.588;2023-07-22T10:14:16;4.70;;;2.80;;
73107;SDS011;61559;50.476;15.588;2023-07-22T10:16:48;2.60;;;2.10;;
73107;SDS011;61559;50.476;15.588;2023-07-22T10:19:21;3.30;;;1.90;;
73107;SDS011;61559;50.476;15.588;2023-07-22T10:21:54;3.40;;;2.00;;
73107;SDS011;61559;50.476;15.588;2023-07-22T10:24:26;3.50;;;2.30;;
73107;SDS011;61559;50.476;15.588;2023-07-22T10:26:58;4.40;;;2.40;;
73107;SDS011;61559;50.476;15.588;2023-07-22T10:29:30;4.10;;;2.10;;
73107;SDS011;61559;50.476;15.588;2023-07-22T10:32:02;2.50;;;2.00;;
73107;SDS011;61559;50.476;15.588;2023-07-22T10:34:34;2.80;;;2.50;;
73107;SDS011;61559;50.476;15.588;2023-07-22T10:37:06;2.70;;;2.50;;
73107;SDS011;61559;50.476;15.588;2023-07-22T10:39:40;2.50;;;2.10;;
73107;SDS011;61559;50.476;15.588;2023-07-22T10:42:17;2.80;;;2.00;;
73107;SDS011;61559;50.476;15.588;2023-07-22T10:44:54;3.70;;;2.50;;
73107;SDS011;61559;50.476;15.588;2023-07-22T10:47:34;3.20;;;2.50;;
73107;SDS011;61559;50.476;15.588;2023-07-22T10:50:09;2.70;;;2.00;;
73107;SDS011;61559;50.476;15.588;2023-07-22T10:55:16;2.60;;;2.40;;
73107;SDS011;61559;50.476;15.588;2023-07-22T10:57:48;2.10;;;1.90;;
73107;SDS011;61559;50.476;15.588;2023-07-22T11:00:21;2.60;;;2.20;;
73107;SDS011;61559;50.476;15.588;2023-07-22T11:03:09;2.30;;;2.00;;
73107;SDS011;61559;50.476;15.588;2023-07-22T11:05:48;3.80;;;2.50;;
73107;SDS011;61559;50.476;15.588;2023-07-22T11:08:37;2.10;;;1.90;;
73107;SDS011;61559;50.476;15.588;2023-07-22T11:11:09;2.80;;;2.10;;
73107;SDS011;61559;50.476;15.588;2023-07-22T11:13:41;2.30;;;2.00;;
73107;SDS011;61559;50.476;15.588;2023-07-22T11:16:12;5.50;;;2.50;;
73107;SDS011;61559;50.476;15.588;2023-07-22T11:18:46;2.70;;;2.50;;
73107;SDS011;61559;50.476;15.588;2023-07-22T11:21:17;2.40;;;1.90;;
73107;SDS011;61559;50.476;15.588;2023-07-22T11:23:48;2.90;;;2.30;;
73107;SDS011;61559;50.476;15.588;2023-07-22T11:26:19;2.60;;;2.20;;
73107;SDS011;61559;50.476;15.588;2023-07-22T11:28:51;2.80;;;2.00;;
73107;SDS011;61559;50.476;15.588;2023-07-22T11:31:22;2.20;;;2.00;;
73107;SDS011;61559;50.476;15.588;2023-07-22T11:34:01;2.50;;;1.80;;
73107;SDS011;61559;50.476;15.588;2023-07-22T11:36:33;3.60;;;2.00;;
73107;SDS011;61559;50.476;15.588;2023-07-22T11:39:05;2.40;;;2.00;;
73107;SDS011;61559;50.476;15.588;2023-07-22T11:41:39;2.60;;;1.80;;
73107;SDS011;61559;50.476;15.588;2023-07-22T11:44:12;1.90;;;1.70;;
73107;SDS011;61559;50.476;15.588;2023-07-22T11:46:51;2.30;;;2.00;;
73107;SDS011;61559;50.476;15.588;2023-07-22T11:49:26;2.90;;;2.00;;
73107;SDS011;61559;50.476;15.588;2023-07-22T11:52:00;2.30;;;2.10;;
73107;SDS011;61559;50.476;15.588;2023-07-22T11:54:33;2.00;;;1.80;;
73107;SDS011;61559;50.476;15.588;2023-07-22T11:57:13;2.50;;;1.60;;
73107;SDS011;61559;50.476;15.588;2023-07-22T11:59:46;2.30;;;1.70;;
73107;SDS011;61559;50.476;15.588;2023-07-22T12:02:19;2.80;;;2.30;;
73107;SDS011;61559;50.476;15.588;2023-07-22T12:04:55;2.90;;;2.20;;
73107;SDS011;61559;50.476;15.588;2023-07-22T12:07:28;3.00;;;2.00;;
73107;SDS011;61559;50.476;15.588;2023-07-22T12:10:02;3.40;;;1.80;;
73107;SDS011;61559;50.476;15.588;2023-07-22T12:12:35;4.50;;;2.20;;
73107;SDS011;61559;50.476;15.588;2023-07-22T12:15:11;3.70;;;2.20;;
73107;SDS011;61559;50.476;15.588;2023-07-22T12:17:44;3.10;;;1.90;;
73107;SDS011;61559;50.476;15.588;2023-07-22T12:20:17;3.80;;;2.40;;
73107;SDS011;61559;50.476;15.588;2023-07-22T12:22:52;4.30;;;1.60;;
73107;SDS011;61559;50.476;15.588;2023-07-22T12:25:23;4.80;;;2.10;;
73107;SDS011;61559;50.476;15.588;2023-07-22T12:27:55;2.80;;;2.10;;
73107;SDS011;61559;50.476;15.588;2023-07-22T12:30:26;2.90;;;1.80;;
73107;SDS011;61559;50.476;15.588;2023-07-22T12:32:57;2.30;;;2.00;;
73107;SDS011;61559;50.476;15.588;2023-07-22T12:35:28;4.50;;;1.80;;
73107;SDS011;61559;50.476;15.588;2023-07-22T12:37:59;2.50;;;2.30;;
73107;SDS011;61559;50.476;15.588;2023-07-22T12:40:31;2.50;;;2.10;;
73107;SDS011;61559;50.476;15.588;2023-07-22T12:43:02;3.00;;;1.60;;
73107;SDS011;61559;50.476;15.588;2023-07-22T12:45:33;2.20;;;1.60;;
73107;SDS011;61559;50.476;15.588;2023-07-22T12:48:04;4.30;;;2.00;;
73107;SDS011;61559;50.476;15.588;2023-07-22T12:50:36;4.50;;;1.90;;
73107;SDS011;61559;50.476;15.588;2023-07-22T12:53:07;3.40;;;1.70;;
73107;SDS011;61559;50.476;15.588;2023-07-22T12:55:38;2.20;;;1.70;;
73107;SDS011;61559;50.476;15.588;2023-07-22T12:58:09;2.80;;;1.70;;
73107;SDS011;61559;50.476;15.588;2023-07-22T13:00:40;2.40;;;1.90;;
73107;SDS011;61559;50.476;15.588;2023-07-22T13:03:12;5.20;;;2.00;;
73107;SDS011;61559;50.476;15.588;2023-07-22T13:05:43;2.50;;;1.90;;
73107;SDS011;61559;50.476;15.588;2023-07-22T13:08:17;2.60;;;2.00;;
73107;SDS011;61559;50.476;15.588;2023-07-22T13:10:48;2.20;;;1.80;;
73107;SDS011;61559;50.476;15.588;2023-07-22T13:13:19;3.30;;;1.90;;
73107;SDS011;61559;50.476;15.588;2023-07-22T13:15:50;2.50;;;2.10;;
73107;SDS011;61559;50.476;15.588;2023-07-22T13:18:21;2.00;;;1.80;;
73107;SDS011;61559;50.476;15.588;2023-07-22T13:20:52;2.70;;;1.80;;
73107;SDS011;61559;50.476;15.588;2023-07-22T13:23:24;3.60;;;2.10;;
73107;SDS011;61559;50.476;15.588;2023-07-22T13:25:55;3.50;;;2.30;;
73107;SDS011;61559;50.476;15.588;2023-07-22T13:28:26;4.20;;;2.30;;
73107;SDS011;61559;50.476;15.588;2023-07-22T13:30:58;3.20;;;1.80;;
73107;SDS011;61559;50.476;15.588;2023-07-22T13:33:29;3.30;;;2.20;;
73107;SDS011;61559;50.476;15.588;2023-07-22T13:36:02;2.90;;;2.10;;
73107;SDS011;61559;50.476;15.588;2023-07-22T13:38:34;2.70;;;2.00;;
73107;SDS011;61559;50.476;15.588;2023-07-22T13:41:06;2.00;;;1.80;;
73107;SDS011;61559;50.476;15.588;2023-07-22T13:43:37;2.10;;;1.90;;
73107;SDS011;61559;50.476;15.588;2023-07-22T13:46:09;3.40;;;2.00;;
73107;SDS011;61559;50.476;15.588;2023-07-22T13:48:40;2.50;;;1.80;;
73107;SDS011;61559;50.476;15.588;2023-07-22T13:51:11;2.40;;;2.10;;
73107;SDS011;61559;50.476;15.588;2023-07-22T13:53:42;2.20;;;1.90;;
73107;SDS011;61559;50.476;15.588;2023-07-22T13:56:13;2.20;;;1.90;;
73107;SDS011;61559;50.476;15.588;2023-07-22T13:58:44;2.80;;;1.80;;
73107;SDS011;61559;50.476;15.588;2023-07-22T14:01:15;2.80;;;1.70;;
73107;SDS011;61559;50.476;15.588;2023-07-22T14:03:47;2.00;;;1.60;;
73107;SDS011;61559;50.476;15.588;2023-07-22T14:06:18;3.10;;;1.90;;
73107;SDS011;61559;50.476;15.588;2023-07-22T14:08:49;1.80;;;1.40;;
73107;SDS011;61559;50.476;15.588;2023-07-22T14:11:20;4.40;;;1.60;;
73107;SDS011;61559;50.476;15.588;2023-07-22T14:13:53;2.30;;;1.80;;
73107;SDS011;61559;50.476;15.588;2023-07-22T14:16:24;2.80;;;1.90;;
73107;SDS011;61559;50.476;15.588;2023-07-22T14:18:55;2.60;;;1.80;;
73107;SDS011;61559;50.476;15.588;2023-07-22T14:21:26;4.10;;;1.60;;
73107;SDS011;61559;50.476;15.588;2023-07-22T14:23:57;3.30;;;1.90;;
73107;SDS011;61559;50.476;15.588;2023-07-22T14:26:28;3.00;;;1.90;;
73107;SDS011;61559;50.476;15.588;2023-07-22T14:29:00;3.20;;;1.80;;
73107;SDS011;61559;50.476;15.588;2023-07-22T14:31:32;2.90;;;1.60;;
73107;SDS011;61559;50.476;15.588;2023-07-22T14:34:03;2.70;;;1.50;;
73107;SDS011;61559;50.476;15.588;2023-07-22T14:36:34;2.20;;;1.70;;
73107;SDS011;61559;50.476;15.588;2023-07-22T14:39:06;2.50;;;1.40;;
73107;SDS011;61559;50.476;15.588;2023-07-22T14:41:37;2.70;;;1.70;;
73107;SDS011;61559;50.476;15.588;2023-07-22T14:44:09;2.10;;;1.50;;
73107;SDS011;61559;50.476;15.588;2023-07-22T14:46:40;2.30;;;1.70;;
73107;SDS011;61559;50.476;15.588;2023-07-22T14:49:12;2.10;;;1.80;;
73107;SDS011;61559;50.476;15.588;2023-07-22T14:51:43;2.20;;;1.60;;
73107;SDS011;61559;50.476;15.588;2023-07-22T14:54:14;1.80;;;1.50;;
73107;SDS011;61559;50.476;15.588;2023-07-22T14:56:46;2.10;;;1.50;;
73107;SDS011;61559;50.476;15.588;2023-07-22T14:59:17;2.10;;;1.60;;
73107;SDS011;61559;50.476;15.588;2023-07-22T15:01:49;2.20;;;1.90;;
73107;SDS011;61559;50.476;15.588;2023-07-22T15:04:21;2.50;;;2.00;;